Time;durP1;ratioP1;P1;durP2;ratioP2;P2;SDS_P1;SDS_P2;PMS_P1;PMS_P2;Temp;Humidity;BMP_temperature;BMP_pressure;BME280_temperature;BME280_humidity;BME280_pressure;Samples;Min_cycle;Max_cycle;Signal;HPM_P1;HPM_P2
2022/10/01 00:00:53;;;;;;;23.42;18.30;;;8.40;1.00;;;;;;6189793;23;20214;-83
2022/10/01 00:03:22;;;;;;;23.08;18.70;;;8.40;1.00;;;;;;6190847;23;20217;-83
2022/10/01 00:06:00;;;;;;;29.33;18.73;;;8.40;1.00;;;;;;6205761;23;20237;-83
2022/10/01 00:08:36;;;;;;;21.70;19.10;;;8.40;1.00;;;;;;6192775;23;20413;-81
2022/10/01 00:11:17;;;;;;;23.60;19.23;;;8.40;1.00;;;;;;6208761;23;20469;-81
2022/10/01 00:13:45;;;;;;;20.83;17.95;;;8.30;1.00;;;;;;6207138;23;20225;-82
2022/10/01 00:16:13;;;;;;;24.80;19.25;;;8.30;1.00;;;;;;6206762;23;20201;-81
2022/10/01 00:18:43;;;;;;;24.63;19.60;;;8.20;1.00;;;;;;6206332;23;20217;-83
2022/10/01 00:21:13;;;;;;;24.95;18.90;;;8.30;1.00;;;;;;6207928;23;20213;-82
2022/10/01 00:23:40;;;;;;;24.40;20.00;;;8.30;1.00;;;;;;6205973;23;20982;-82
2022/10/01 00:26:13;;;;;;;25.05;19.17;;;8.30;1.00;;;;;;6206292;23;20210;-82
2022/10/01 00:28:45;;;;;;;21.50;18.13;;;8.30;1.00;;;;;;6188735;23;20221;-82
2022/10/01 00:31:14;;;;;;;24.17;18.98;;;8.30;1.00;;;;;;6204004;23;20226;-79
2022/10/01 00:33:43;;;;;;;23.50;20.13;;;8.30;1.00;;;;;;6207150;23;20221;-83
2022/10/01 00:36:13;;;;;;;24.40;19.98;;;8.30;1.00;;;;;;6181303;23;20214;-80
2022/10/01 00:38:41;;;;;;;25.52;20.77;;;8.30;1.00;;;;;;6203198;23;20217;-81
2022/10/01 00:41:09;;;;;;;25.58;21.35;;;8.30;1.00;;;;;;6167195;23;20285;-80
2022/10/01 00:43:39;;;;;;;23.88;21.08;;;8.30;1.00;;;;;;6205856;23;20241;-81
2022/10/01 00:46:12;;;;;;;22.80;19.85;;;8.30;1.00;;;;;;6192905;23;20225;-81
2022/10/01 00:48:52;;;;;;;25.67;20.55;;;8.30;1.00;;;;;;6204896;23;20202;-81
2022/10/01 00:51:22;;;;;;;22.95;19.85;;;8.30;1.00;;;;;;6206332;23;20224;-82
2022/10/01 00:53:50;;;;;;;23.38;19.85;;;8.30;1.00;;;;;;6177801;23;20240;-82
2022/10/01 00:56:17;;;;;;;25.25;20.60;;;8.40;1.00;;;;;;6180443;23;20252;-82
2022/10/01 00:58:44;;;;;;;24.73;21.10;;;8.30;1.00;;;;;;6205913;23;20213;-81
2022/10/01 01:01:11;;;;;;;23.48;20.23;;;8.20;1.00;;;;;;6205221;23;20206;-81
2022/10/01 01:03:40;;;;;;;25.48;22.00;;;8.30;1.00;;;;;;6206693;23;20224;-83
2022/10/01 01:06:08;;;;;;;25.73;20.52;;;8.30;1.00;;;;;;6208887;23;20267;-83
2022/10/01 01:08:36;;;;;;;23.98;21.38;;;8.30;1.00;;;;;;6204850;23;20293;-82
2022/10/01 01:11:10;;;;;;;24.38;21.63;;;8.40;1.00;;;;;;6206129;23;20237;-82
2022/10/01 01:13:49;;;;;;;24.80;21.55;;;8.40;1.00;;;;;;6204991;23;20209;-82
2022/10/01 01:16:22;;;;;;;27.17;22.58;;;8.50;1.00;;;;;;6205630;23;20202;-82
2022/10/01 01:18:58;;;;;;;26.42;23.00;;;8.50;1.00;;;;;;6207202;23;20236;-82
2022/10/01 01:21:29;;;;;;;27.38;23.45;;;8.60;1.00;;;;;;6204268;23;20214;-82
2022/10/01 01:24:33;;;;;;;26.42;23.55;;;8.60;1.00;;;;;;6190196;23;20216;-81
2022/10/01 01:27:15;;;;;;;26.02;22.70;;;8.60;1.00;;;;;;6206676;23;20249;-81
2022/10/01 01:29:56;;;;;;;29.27;24.33;;;8.50;1.00;;;;;;6209764;23;20210;-82
2022/10/01 01:32:27;;;;;;;28.38;24.10;;;8.40;1.00;;;;;;6212045;23;20210;-82
2022/10/01 01:35:04;;;;;;;27.17;22.27;;;8.40;1.00;;;;;;6213273;23;20217;-82
2022/10/01 01:37:36;;;;;;;25.50;21.50;;;8.40;1.00;;;;;;6193868;23;20214;-82
2022/10/01 01:40:09;;;;;;;27.30;21.55;;;8.30;1.00;;;;;;6212957;23;20214;-81
2022/10/01 01:42:39;;;;;;;24.33;21.08;;;8.30;1.00;;;;;;6210022;23;20249;-81
2022/10/01 01:45:10;;;;;;;26.67;22.70;;;8.20;1.00;;;;;;6212500;23;20209;-81
2022/10/01 01:47:41;;;;;;;24.83;21.30;;;8.20;1.00;;;;;;6211424;23;20217;-81
2022/10/01 01:50:24;;;;;;;25.42;20.85;;;8.20;1.00;;;;;;6200806;23;20210;-82
2022/10/01 01:52:55;;;;;;;28.77;22.40;;;8.20;1.00;;;;;;6213335;23;20202;-81
2022/10/01 01:55:56;;;;;;;23.30;20.30;;;8.10;1.00;;;;;;6213626;23;20202;-81
2022/10/01 01:58:25;;;;;;;27.73;19.88;;;8.20;1.00;;;;;;6212801;23;20197;-82
2022/10/01 02:00:54;;;;;;;22.90;20.50;;;8.20;1.00;;;;;;6213795;23;20205;-82
2022/10/01 02:06:24;;;;;;;24.35;20.77;;;8.20;1.00;;;;;;6186768;23;20233;-80
2022/10/01 02:09:04;;;;;;;27.73;23.00;;;8.20;1.00;;;;;;6209451;23;20189;-81
2022/10/01 02:11:44;;;;;;;24.95;21.55;;;8.20;1.00;;;;;;6190409;23;20269;-80
2022/10/01 02:14:22;;;;;;;23.73;20.38;;;8.20;1.00;;;;;;6171420;23;20225;-79
2022/10/01 02:17:00;;;;;;;24.50;21.20;;;8.20;1.00;;;;;;6183758;23;20201;-80
2022/10/01 02:19:39;;;;;;;25.52;21.13;;;8.10;1.00;;;;;;6181810;23;20201;-79
2022/10/01 02:22:18;;;;;;;26.95;22.05;;;8.10;1.00;;;;;;6184641;23;20206;-81
2022/10/01 02:24:55;;;;;;;25.60;21.65;;;8.20;1.00;;;;;;6181946;23;20213;-81
2022/10/01 02:27:29;;;;;;;26.55;22.48;;;8.10;1.00;;;;;;6185624;23;20277;-81
2022/10/01 02:30:11;;;;;;;23.42;20.08;;;8.10;1.00;;;;;;6190886;23;20218;-82
2022/10/01 02:32:53;;;;;;;26.60;21.17;;;8.10;1.00;;;;;;6195758;23;20214;-81
2022/10/01 02:35:24;;;;;;;26.30;21.33;;;8.10;1.00;;;;;;6165510;23;20336;-80
2022/10/01 02:40:53;;;;;;;27.38;20.35;;;8.10;1.00;;;;;;6155277;23;20205;-82
2022/10/01 02:43:41;;;;;;;25.67;20.45;;;8.10;1.00;;;;;;6148195;23;20213;-81
2022/10/01 02:46:33;;;;;;;24.75;19.63;;;8.10;1.00;;;;;;6178807;23;20218;-81
2022/10/01 02:49:05;;;;;;;25.08;22.30;;;8.10;1.00;;;;;;6159985;23;20274;-82
2022/10/01 02:51:48;;;;;;;28.88;21.85;;;8.10;1.00;;;;;;6142939;23;20617;-80
2022/10/01 02:54:31;;;;;;;27.25;21.48;;;8.10;1.00;;;;;;6137547;23;20207;-80
2022/10/01 03:02:42;;;;;;;29.10;21.88;;;8.10;1.00;;;;;;6155071;23;20211;-81
2022/10/01 03:05:13;;;;;;;29.33;22.27;;;8.20;1.00;;;;;;6145198;23;20211;-82
2022/10/01 03:07:43;;;;;;;26.98;21.73;;;8.10;1.00;;;;;;6142232;23;20326;-82
2022/10/01 03:10:11;;;;;;;26.10;19.52;;;8.10;1.00;;;;;;6133283;23;20219;-81
2022/10/01 03:12:41;;;;;;;26.58;20.40;;;8.10;1.00;;;;;;6138123;23;20296;-82
2022/10/01 03:15:09;;;;;;;26.05;19.80;;;8.10;1.00;;;;;;6180851;23;20275;-82
2022/10/01 03:17:41;;;;;;;27.85;19.33;;;8.10;1.00;;;;;;6140956;23;20218;-81
2022/10/01 03:20:16;;;;;;;28.65;21.55;;;8.10;1.00;;;;;;6163523;23;20271;-80
2022/10/01 03:22:45;;;;;;;27.27;22.13;;;8.20;1.00;;;;;;6142860;23;20229;-80
2022/10/01 03:25:14;;;;;;;26.17;20.25;;;8.20;1.00;;;;;;6144399;23;20219;-80
2022/10/01 03:27:42;;;;;;;27.02;21.23;;;8.20;1.00;;;;;;6141097;23;20264;-77
2022/10/01 03:30:12;;;;;;;25.15;19.30;;;8.20;1.00;;;;;;6140076;23;20231;-76
2022/10/01 03:32:42;;;;;;;24.42;18.92;;;8.20;1.00;;;;;;6159146;23;20218;-79
2022/10/01 03:35:10;;;;;;;22.25;18.10;;;8.20;1.00;;;;;;6201862;23;20266;-78
2022/10/01 03:37:43;;;;;;;27.83;20.45;;;8.20;1.00;;;;;;6199613;23;20217;-77
2022/10/01 03:40:12;;;;;;;24.15;19.20;;;8.20;1.00;;;;;;6190637;23;20214;-78
2022/10/01 03:42:52;;;;;;;22.40;18.17;;;8.20;1.00;;;;;;6208184;23;20249;-83
2022/10/01 03:45:21;;;;;;;26.02;19.90;;;8.30;1.00;;;;;;6210465;23;20269;-82
2022/10/01 03:48:01;;;;;;;23.80;18.45;;;8.30;1.00;;;;;;6213869;23;20214;-81
2022/10/01 03:50:30;;;;;;;21.90;17.10;;;8.30;1.00;;;;;;6205340;23;20210;-81
2022/10/01 03:53:03;;;;;;;21.98;15.65;;;8.30;1.00;;;;;;6198717;23;20406;-79
2022/10/01 03:55:34;;;;;;;22.98;17.30;;;8.30;1.00;;;;;;6188454;23;20205;-80
2022/10/01 03:58:05;;;;;;;21.45;16.27;;;8.30;1.00;;;;;;6194681;23;20264;-77
2022/10/01 04:00:35;;;;;;;19.25;15.93;;;8.30;1.00;;;;;;6173302;23;20243;-76
2022/10/01 04:03:02;;;;;;;20.45;15.50;;;8.30;1.00;;;;;;6202167;23;20225;-77
2022/10/01 04:05:32;;;;;;;20.92;16.92;;;8.30;1.00;;;;;;6189918;23;20220;-81
2022/10/01 04:08:03;;;;;;;21.52;17.27;;;8.30;1.00;;;;;;6199066;23;21081;-77
2022/10/01 04:10:34;;;;;;;20.63;15.05;;;8.30;1.00;;;;;;6200673;23;20206;-81
2022/10/01 04:13:10;;;;;;;20.73;14.43;;;8.30;1.00;;;;;;6202516;23;20213;-78
2022/10/01 04:15:42;;;;;;;22.95;15.98;;;8.30;1.00;;;;;;6201906;23;20210;-80
2022/10/01 04:18:16;;;;;;;20.05;14.55;;;8.30;1.00;;;;;;6202097;23;20214;-78
2022/10/01 04:20:44;;;;;;;19.00;14.65;;;8.30;1.00;;;;;;6201541;23;20248;-81
2022/10/01 04:23:14;;;;;;;18.95;14.27;;;8.40;1.00;;;;;;6202666;23;20297;-82
2022/10/01 04:25:43;;;;;;;20.55;14.88;;;8.40;1.00;;;;;;6197707;23;20214;-81
2022/10/01 04:28:18;;;;;;;20.25;14.75;;;8.40;1.00;;;;;;6213473;22;20280;-82
2022/10/01 04:31:23;;;;;;;19.52;14.93;;;8.40;1.00;;;;;;6198400;23;20265;-82
2022/10/01 04:33:45;;;;;;;20.15;14.73;;;8.40;1.00;;;;;;6196892;23;20230;-83
2022/10/01 04:36:15;;;;;;;18.15;13.55;;;8.40;1.00;;;;;;6187411;23;20974;-82
2022/10/01 04:38:46;;;;;;;17.85;12.82;;;8.40;1.00;;;;;;6183374;23;20959;-81
2022/10/01 04:41:14;;;;;;;18.38;12.88;;;8.40;1.00;;;;;;6204574;23;20309;-82
2022/10/01 04:43:43;;;;;;;19.53;14.00;;;8.40;1.00;;;;;;6192646;23;20218;-82
2022/10/01 04:46:11;;;;;;;17.55;13.63;;;8.40;1.00;;;;;;6201514;23;20438;-84
2022/10/01 04:48:44;;;;;;;19.08;13.90;;;8.40;1.00;;;;;;6183919;23;20266;-83
2022/10/01 04:51:12;;;;;;;17.38;12.82;;;8.40;1.00;;;;;;6201919;23;20241;-78
2022/10/01 04:53:44;;;;;;;18.77;12.27;;;8.40;1.00;;;;;;6197635;23;20206;-84
2022/10/01 04:56:14;;;;;;;16.42;12.30;;;8.40;1.00;;;;;;6180274;23;21140;-84
2022/10/01 04:59:03;;;;;;;17.05;12.70;;;8.40;1.00;;;;;;6203389;23;20310;-83
2022/10/01 05:01:35;;;;;;;18.23;12.93;;;8.40;1.00;;;;;;6168806;23;21188;-81
2022/10/01 05:04:04;;;;;;;17.85;12.40;;;8.40;1.00;;;;;;6199405;23;20224;-81
2022/10/01 05:06:40;;;;;;;18.38;11.15;;;8.40;1.00;;;;;;6201117;23;20225;-79
2022/10/01 05:09:15;;;;;;;19.52;12.88;;;8.40;1.00;;;;;;6205122;23;20217;-82
2022/10/01 05:11:42;;;;;;;15.57;11.20;;;8.50;1.00;;;;;;6174516;23;20208;-81
2022/10/01 05:14:14;;;;;;;16.25;11.20;;;8.60;1.00;;;;;;6170797;23;20267;-81
2022/10/01 05:16:47;;;;;;;15.48;10.57;;;8.60;1.00;;;;;;6198879;23;20654;-81
2022/10/01 05:19:16;;;;;;;15.27;11.30;;;8.60;1.00;;;;;;6187824;23;20225;-83
2022/10/01 05:21:45;;;;;;;16.23;11.00;;;8.60;1.00;;;;;;6186541;23;20209;-82
2022/10/01 05:24:15;;;;;;;14.98;10.52;;;8.60;1.00;;;;;;6179204;23;20212;-81
2022/10/01 05:26:43;;;;;;;15.02;10.45;;;8.70;1.00;;;;;;6183027;23;20363;-83
2022/10/01 05:29:14;;;;;;;14.85;10.32;;;8.70;1.00;;;;;;6165838;23;20301;-83
2022/10/01 05:31:46;;;;;;;15.73;10.77;;;8.70;1.00;;;;;;6168563;23;20244;-83
2022/10/01 05:34:14;;;;;;;14.73;10.57;;;8.80;1.00;;;;;;6196052;23;20225;-83
2022/10/01 05:36:44;;;;;;;14.40;9.75;;;8.80;1.00;;;;;;6196689;23;20220;-81
2022/10/01 05:39:10;;;;;;;16.63;10.27;;;8.80;1.00;;;;;;6182454;23;20214;-81
2022/10/01 05:41:39;;;;;;;16.70;10.77;;;8.80;1.00;;;;;;6196990;23;20686;-82
2022/10/01 05:44:07;;;;;;;15.35;10.55;;;8.80;1.00;;;;;;6193509;23;20234;-81
2022/10/01 05:46:35;;;;;;;14.48;9.68;;;8.80;1.00;;;;;;6193708;23;20225;-81
2022/10/01 05:49:02;;;;;;;14.65;9.70;;;8.90;1.00;;;;;;6193140;23;20264;-80
2022/10/01 05:51:29;;;;;;;14.48;9.63;;;8.90;1.00;;;;;;6192929;23;20226;-80
2022/10/01 05:54:03;;;;;;;13.88;9.45;;;8.90;1.00;;;;;;6195512;23;20281;-82
2022/10/01 05:56:32;;;;;;;15.25;10.20;;;9.00;1.00;;;;;;6193806;23;20214;-82
2022/10/01 05:59:02;;;;;;;13.55;9.32;;;9.10;1.00;;;;;;6179027;23;20388;-80
2022/10/01 06:01:31;;;;;;;12.63;8.63;;;9.10;1.00;;;;;;6191802;23;20213;-79
2022/10/01 06:03:58;;;;;;;13.55;8.50;;;9.20;1.00;;;;;;6192152;23;21013;-80
2022/10/01 06:06:26;;;;;;;13.43;8.80;;;9.30;1.00;;;;;;6187252;23;20210;-80
2022/10/01 06:08:53;;;;;;;14.80;9.68;;;9.30;1.00;;;;;;6194138;23;20294;-79
2022/10/01 06:11:23;;;;;;;12.73;8.17;;;9.30;1.00;;;;;;6179444;23;20214;-79
2022/10/01 06:13:50;;;;;;;13.90;8.90;;;9.40;1.00;;;;;;6193682;23;20449;-80
2022/10/01 06:16:20;;;;;;;13.10;9.40;;;9.50;1.00;;;;;;6195062;23;20464;-79
2022/10/01 06:18:47;;;;;;;13.20;9.00;;;9.60;1.00;;;;;;6194495;23;20414;-79
2022/10/01 06:21:14;;;;;;;13.60;9.35;;;9.70;1.00;;;;;;6193715;23;20214;-79
2022/10/01 06:23:45;;;;;;;16.13;8.67;;;9.70;1.00;;;;;;6195536;23;20245;-78
2022/10/01 06:26:11;;;;;;;12.60;8.90;;;9.70;1.00;;;;;;6191645;23;20440;-81
2022/10/01 06:28:42;;;;;;;12.73;8.70;;;9.80;1.00;;;;;;6196931;23;20417;-79
2022/10/01 06:31:09;;;;;;;13.07;9.02;;;9.80;1.00;;;;;;6195099;23;20402;-81
2022/10/01 06:33:37;;;;;;;15.67;9.73;;;9.90;1.00;;;;;;6190824;23;20304;-78
2022/10/01 06:36:06;;;;;;;12.50;8.27;;;9.90;1.00;;;;;;6192909;23;20414;-78
2022/10/01 06:38:32;;;;;;;13.43;8.50;;;9.90;1.00;;;;;;6193510;23;20406;-79
2022/10/01 06:41:01;;;;;;;13.00;9.90;;;10.00;1.00;;;;;;6191312;23;20496;-80
2022/10/01 06:43:30;;;;;;;12.10;8.30;;;10.00;1.00;;;;;;6193472;23;20412;-80
2022/10/01 06:46:00;;;;;;;13.17;8.80;;;10.10;1.00;;;;;;6194646;23;20418;-80
2022/10/01 06:48:32;;;;;;;13.77;9.00;;;10.20;1.00;;;;;;6195002;23;20887;-79
2022/10/01 06:51:02;;;;;;;14.20;8.57;;;10.30;1.00;;;;;;6193432;23;20418;-79
2022/10/01 06:53:30;;;;;;;13.43;9.00;;;10.30;1.00;;;;;;6193233;23;20406;-79
2022/10/01 06:56:05;;;;;;;13.27;9.47;;;10.40;1.00;;;;;;6193774;23;20437;-79
2022/10/01 06:58:32;;;;;;;15.47;9.00;;;10.50;1.00;;;;;;6190384;23;20428;-78
2022/10/01 07:01:02;;;;;;;14.57;10.07;;;10.50;1.00;;;;;;6193087;23;21157;-80
2022/10/01 07:03:30;;;;;;;12.00;8.60;;;10.50;1.00;;;;;;6192223;23;20436;-78
2022/10/01 07:06:06;;;;;;;13.63;9.00;;;10.50;1.00;;;;;;6181806;23;21323;-78
2022/10/01 07:08:34;;;;;;;13.00;9.07;;;10.50;1.00;;;;;;6194098;23;20520;-76
2022/10/01 07:11:03;;;;;;;12.77;8.80;;;10.50;1.00;;;;;;6197766;23;20223;-78
2022/10/01 07:13:31;;;;;;;15.27;9.20;;;10.50;1.00;;;;;;6197276;23;20429;-75
2022/10/01 07:15:59;;;;;;;14.70;8.90;;;10.50;1.00;;;;;;6202244;23;20410;-75
2022/10/01 07:18:27;;;;;;;13.00;9.00;;;10.60;1.00;;;;;;6199688;23;20805;-77
2022/10/01 07:21:00;;;;;;;16.43;9.23;;;10.60;1.00;;;;;;6201148;23;20456;-75
2022/10/01 07:23:31;;;;;;;13.27;8.80;;;10.60;1.00;;;;;;6199814;23;20382;-78
2022/10/01 07:26:03;;;;;;;12.80;8.70;;;10.60;1.00;;;;;;6202975;23;20412;-77
2022/10/01 07:28:31;;;;;;;12.43;8.60;;;10.70;1.00;;;;;;6199148;23;20426;-78
2022/10/01 07:31:06;;;;;;;12.27;8.53;;;10.70;1.00;;;;;;6202082;23;20461;-80
2022/10/01 07:33:34;;;;;;;14.00;8.50;;;10.70;1.00;;;;;;6197310;23;20400;-78
2022/10/01 07:36:03;;;;;;;12.03;8.37;;;10.80;1.00;;;;;;6201089;23;20445;-79
2022/10/01 07:38:33;;;;;;;13.40;9.10;;;10.80;1.00;;;;;;6202468;23;20395;-79
2022/10/01 07:41:02;;;;;;;15.60;8.90;;;10.90;1.00;;;;;;6202052;23;20416;-79
2022/10/01 07:43:33;;;;;;;16.23;9.10;;;11.00;1.00;;;;;;6199653;23;20450;-77
2022/10/01 07:46:11;;;;;;;13.33;9.70;;;11.00;1.00;;;;;;6190008;23;20408;-81
2022/10/01 07:48:51;;;;;;;12.40;8.27;;;11.00;1.00;;;;;;6191429;23;20378;-78
2022/10/01 07:51:23;;;;;;;13.67;8.53;;;11.10;1.00;;;;;;6197729;23;20481;-77
2022/10/01 07:53:53;;;;;;;13.67;8.30;;;11.20;1.00;;;;;;6190523;23;20401;-77
2022/10/01 07:56:32;;;;;;;12.43;7.87;;;11.30;1.00;;;;;;6205213;23;20406;-80
2022/10/01 07:59:04;;;;;;;12.77;8.07;;;11.40;1.00;;;;;;6203326;23;20401;-78
2022/10/01 08:01:33;;;;;;;13.97;8.87;;;11.50;1.00;;;;;;6202056;23;20437;-78
2022/10/01 08:05:16;;;;;;;14.60;8.70;;;11.60;1.00;;;;;;6201581;23;20409;-78
2022/10/01 08:06:53;;;;;;;11.47;7.90;;;11.60;1.00;;;;;;6198585;23;20438;-79
2022/10/01 08:09:26;;;;;;;11.60;8.20;;;11.60;1.00;;;;;;6188999;23;20526;-78
2022/10/01 08:11:54;;;;;;;13.40;8.53;;;11.60;1.00;;;;;;6203237;23;20476;-80
2022/10/01 08:14:25;;;;;;;13.67;8.87;;;11.70;1.00;;;;;;6203435;23;20476;-78
2022/10/01 08:16:54;;;;;;;11.40;7.60;;;11.70;1.00;;;;;;6203198;23;20534;-79
2022/10/01 08:19:22;;;;;;;12.33;8.00;;;11.80;1.00;;;;;;6185137;23;20500;-80
2022/10/01 08:21:54;;;;;;;12.10;8.50;;;12.00;1.00;;;;;;6204510;23;20394;-79
2022/10/01 08:24:33;;;;;;;11.67;7.83;;;12.10;1.00;;;;;;6203883;23;20413;-80
2022/10/01 08:27:11;;;;;;;11.77;8.20;;;12.10;1.00;;;;;;6201750;23;20394;-79
2022/10/01 08:29:43;;;;;;;11.63;8.20;;;12.30;1.00;;;;;;6203470;23;20449;-77
2022/10/01 08:32:11;;;;;;;11.20;7.57;;;12.40;1.00;;;;;;6202448;23;20418;-77
2022/10/01 08:34:42;;;;;;;11.37;7.70;;;12.40;1.00;;;;;;6201662;23;20406;-78
2022/10/01 08:37:13;;;;;;;13.23;7.97;;;12.50;1.00;;;;;;6198574;23;20440;-76
2022/10/01 08:39:46;;;;;;;11.17;7.70;;;12.50;1.00;;;;;;6200083;23;20449;-79
2022/10/01 08:42:30;;;;;;;11.03;7.10;;;12.60;1.00;;;;;;6186611;23;20425;-78
2022/10/01 08:45:04;;;;;;;11.13;7.10;;;12.50;1.00;;;;;;6200799;23;20429;-78
2022/10/01 08:47:41;;;;;;;10.23;6.83;;;12.50;1.00;;;;;;6199697;23;20401;-78
2022/10/01 08:50:20;;;;;;;11.13;7.00;;;12.60;1.00;;;;;;6202906;23;20394;-78
2022/10/01 08:52:56;;;;;;;11.43;6.97;;;12.70;1.00;;;;;;6203671;23;20425;-78
2022/10/01 08:55:40;;;;;;;11.10;7.37;;;12.70;1.00;;;;;;6201328;23;20498;-80
2022/10/01 08:58:19;;;;;;;12.33;6.87;;;12.80;1.00;;;;;;6185617;23;20413;-75
2022/10/01 09:00:55;;;;;;;11.30;7.30;;;12.90;1.00;;;;;;6193401;23;20390;-78
2022/10/01 09:03:22;;;;;;;12.60;6.83;;;13.00;1.00;;;;;;6186343;23;20402;-81
2022/10/01 09:06:03;;;;;;;12.50;8.10;;;13.20;1.00;;;;;;6203201;23;20449;-82
2022/10/01 09:08:55;;;;;;;12.00;6.40;;;13.40;1.00;;;;;;6202000;23;20410;-74
2022/10/01 09:11:44;;;;;;;12.20;8.20;;;13.50;1.00;;;;;;6194781;23;20413;-78
2022/10/01 09:14:50;;;;;;;9.67;6.63;;;13.60;1.00;;;;;;6201723;23;20394;-77
2022/10/01 09:17:39;;;;;;;10.30;6.40;;;13.70;1.00;;;;;;6180048;23;20386;-77
2022/10/01 09:20:20;;;;;;;10.93;6.00;;;13.70;1.00;;;;;;6202618;23;20469;-79
2022/10/01 09:23:04;;;;;;;11.43;6.13;;;13.60;1.00;;;;;;6199822;23;20428;-81
2022/10/01 09:25:36;;;;;;;9.10;6.07;;;13.70;1.00;;;;;;6201804;23;20461;-79
2022/10/01 09:28:18;;;;;;;9.23;5.53;;;13.60;1.00;;;;;;6200791;23;20516;-76
2022/10/01 09:31:09;;;;;;;9.53;5.83;;;13.70;1.00;;;;;;6196599;23;20406;-81
2022/10/01 09:33:52;;;;;;;9.23;6.27;;;13.70;1.00;;;;;;6201713;23;20389;-84
2022/10/01 09:36:34;;;;;;;8.60;5.70;;;13.80;1.00;;;;;;6202436;23;20408;-82
2022/10/01 09:39:13;;;;;;;9.70;5.77;;;13.90;1.00;;;;;;6193154;23;20434;-82
2022/10/01 09:42:02;;;;;;;8.90;5.07;;;14.10;1.00;;;;;;6201402;23;20394;-80
2022/10/01 09:44:41;;;;;;;7.70;4.63;;;14.20;1.00;;;;;;6201316;23;20386;-77
2022/10/01 09:47:22;;;;;;;8.47;5.53;;;14.50;1.00;;;;;;6188667;23;20491;-82
2022/10/01 09:52:41;;;;;;;9.23;3.90;;;14.80;1.00;;;;;;6201792;23;20422;-78
2022/10/01 09:55:30;;;;;;;8.60;3.77;;;14.30;1.00;;;;;;6201561;23;20437;-78
2022/10/01 09:58:11;;;;;;;7.57;3.60;;;14.00;1.00;;;;;;6201002;23;20430;-78
2022/10/01 10:00:50;;;;;;;10.30;3.30;;;13.70;1.00;;;;;;6161114;23;20787;-77
2022/10/01 10:03:25;;;;;;;7.50;3.40;;;13.50;1.00;;;;;;6200105;23;21076;-77
2022/10/01 10:05:58;;;;;;;7.50;3.23;;;13.30;1.00;;;;;;6201843;23;20437;-78
2022/10/01 10:08:39;;;;;;;6.20;2.90;;;13.30;1.00;;;;;;6188276;23;20445;-78
2022/10/01 10:11:21;;;;;;;7.90;2.87;;;13.30;1.00;;;;;;6199942;23;20417;-77
2022/10/01 10:14:02;;;;;;;7.30;3.00;;;13.20;1.00;;;;;;6204062;23;20390;-78
2022/10/01 10:16:39;;;;;;;7.07;3.40;;;13.00;1.00;;;;;;6202983;23;20429;-77
2022/10/01 10:19:18;;;;;;;7.73;3.50;;;12.80;1.00;;;;;;6198220;23;20450;-76
2022/10/01 10:21:52;;;;;;;7.73;3.30;;;12.60;1.00;;;;;;6199741;23;20429;-78
2022/10/01 10:24:29;;;;;;;7.43;3.50;;;12.50;1.00;;;;;;6195158;23;20429;-82
2022/10/01 10:27:00;;;;;;;7.10;3.00;;;12.30;1.00;;;;;;6202746;23;20393;-77
2022/10/01 10:29:31;;;;;;;8.30;3.83;;;12.10;1.00;;;;;;6175393;23;20425;-79
2022/10/01 10:32:16;;;;;;;9.23;4.70;;;12.00;1.00;;;;;;6202742;23;20409;-78
2022/10/01 10:34:49;;;;;;;9.50;4.73;;;11.80;1.00;;;;;;6204345;23;20412;-80
2022/10/01 10:37:20;;;;;;;10.57;5.13;;;11.70;1.00;;;;;;6200940;23;20382;-82
2022/10/01 10:42:51;;;;;;;9.57;5.10;;;11.50;1.00;;;;;;6197439;23;20418;-77
2022/10/01 10:45:24;;;;;;;10.00;4.73;;;11.40;1.00;;;;;;6188629;23;20482;-79
2022/10/01 10:47:59;;;;;;;11.77;5.67;;;11.30;1.00;;;;;;6202093;23;20409;-77
2022/10/01 10:50:39;;;;;;;12.13;6.57;;;11.20;1.00;;;;;;6200125;23;20468;-78
2022/10/01 10:53:24;;;;;;;13.97;7.27;;;11.20;1.00;;;;;;6204102;23;20414;-81
2022/10/01 10:56:00;;;;;;;12.27;6.27;;;11.20;1.00;;;;;;6204130;23;20432;-84
2022/10/01 10:58:43;;;;;;;12.53;6.20;;;11.30;1.00;;;;;;6203208;23;20381;-78
2022/10/01 11:01:18;;;;;;;11.20;6.07;;;11.20;1.00;;;;;;6204794;23;20429;-82
2022/10/01 11:03:55;;;;;;;12.57;6.73;;;11.30;1.00;;;;;;6200081;23;20420;-80
2022/10/01 11:06:26;;;;;;;12.40;6.47;;;11.20;1.00;;;;;;6203444;23;20433;-81
2022/10/01 11:09:09;;;;;;;12.87;6.80;;;11.10;1.00;;;;;;6200802;23;20432;-80
2022/10/01 11:11:59;;;;;;;12.73;7.33;;;11.10;1.00;;;;;;6202090;23;20393;-80
2022/10/01 11:14:49;;;;;;;13.93;7.47;;;11.20;1.00;;;;;;6198858;23;20421;-79
2022/10/01 11:17:39;;;;;;;14.40;7.60;;;11.10;1.00;;;;;;6201732;23;20441;-78
2022/10/01 11:20:50;;;;;;;12.33;6.63;;;11.20;1.00;;;;;;6196453;23;20381;-82
2022/10/01 11:23:38;;;;;;;22.63;8.87;;;11.20;1.00;;;;;;6204362;23;20394;-82
2022/10/01 11:26:32;;;;;;;13.10;7.20;;;11.20;1.00;;;;;;6206089;23;20374;-81
2022/10/01 11:29:11;;;;;;;12.13;6.90;;;11.20;1.00;;;;;;6205238;23;20437;-82
2022/10/01 11:31:45;;;;;;;13.40;6.77;;;11.30;1.00;;;;;;6201177;23;20866;-81
2022/10/01 11:34:50;;;;;;;12.17;7.03;;;11.20;1.00;;;;;;6162455;23;20613;-81
2022/10/01 11:37:37;;;;;;;12.07;6.13;;;11.20;1.00;;;;;;6197412;23;21101;-80
2022/10/01 11:40:23;;;;;;;11.70;6.10;;;11.20;1.00;;;;;;6197477;23;20465;-81
2022/10/01 11:43:00;;;;;;;11.90;5.80;;;11.20;1.00;;;;;;6197071;23;20410;-82
2022/10/01 11:45:34;;;;;;;11.40;5.37;;;11.20;1.00;;;;;;6200375;23;20421;-81
2022/10/01 11:48:05;;;;;;;12.70;6.50;;;11.20;1.00;;;;;;6201741;23;20490;-82
2022/10/01 11:50:34;;;;;;;12.53;6.80;;;11.20;1.00;;;;;;6187375;23;20442;-82
2022/10/01 11:53:09;;;;;;;11.40;5.50;;;11.20;1.00;;;;;;6197912;23;20434;-82
2022/10/01 11:58:51;;;;;;;13.83;6.67;;;11.20;1.00;;;;;;6199846;23;20442;-80
2022/10/01 12:01:28;;;;;;;11.60;5.87;;;11.20;1.00;;;;;;6201542;23;20449;-81
2022/10/01 12:04:12;;;;;;;12.70;6.30;;;11.20;1.00;;;;;;6155673;23;21230;-80
2022/10/01 12:06:56;;;;;;;11.13;5.73;;;11.20;1.00;;;;;;6162549;23;20417;-81
2022/10/01 12:09:34;;;;;;;11.27;5.63;;;11.10;1.00;;;;;;6184761;23;20397;-83
2022/10/01 12:12:08;;;;;;;11.67;5.73;;;11.10;1.00;;;;;;6199734;23;20458;-82
2022/10/01 12:14:43;;;;;;;11.53;6.10;;;11.10;1.00;;;;;;6198766;23;20466;-82
2022/10/01 12:17:25;;;;;;;11.90;5.53;;;11.10;1.00;;;;;;6198950;23;20429;-80
2022/10/01 12:20:00;;;;;;;10.97;5.40;;;11.20;1.00;;;;;;6185922;23;20425;-82
2022/10/01 12:22:30;;;;;;;12.47;6.30;;;11.20;1.00;;;;;;6197777;23;21170;-82
2022/10/01 12:24:58;;;;;;;11.70;5.87;;;11.20;1.00;;;;;;6193153;23;21151;-81
2022/10/01 12:27:36;;;;;;;11.73;5.40;;;11.20;1.00;;;;;;6196880;23;20386;-82
2022/10/01 12:30:08;;;;;;;10.17;4.87;;;11.30;1.00;;;;;;6206387;23;20405;-82
2022/10/01 12:32:48;;;;;;;10.90;4.60;;;11.20;1.00;;;;;;6198648;23;20465;-82
2022/10/01 12:35:32;;;;;;;13.93;5.40;;;11.20;1.00;;;;;;6197859;23;20401;-81
2022/10/01 12:38:12;;;;;;;11.20;4.47;;;11.30;1.00;;;;;;6199223;23;20443;-81
2022/10/01 12:40:50;;;;;;;9.80;4.47;;;11.30;1.00;;;;;;6197542;23;20414;-82
2022/10/01 12:43:47;;;;;;;10.90;4.67;;;11.30;1.00;;;;;;6182772;23;20945;-81
2022/10/01 12:46:26;;;;;;;12.10;5.10;;;11.40;1.00;;;;;;6195160;23;20390;-81
2022/10/01 12:49:01;;;;;;;12.53;6.10;;;11.40;1.00;;;;;;6196904;23;20421;-80
2022/10/01 12:51:41;;;;;;;10.10;4.50;;;11.40;1.00;;;;;;6196213;23;21105;-82
2022/10/01 12:54:33;;;;;;;11.60;4.60;;;11.40;1.00;;;;;;6196961;23;20437;-83
2022/10/01 12:57:15;;;;;;;12.20;5.13;;;11.40;1.00;;;;;;6196700;23;21196;-80
2022/10/01 13:00:00;;;;;;;10.73;4.47;;;11.40;1.00;;;;;;6155539;23;20386;-81
2022/10/01 13:03:05;;;;;;;11.90;5.37;;;11.40;1.00;;;;;;6197771;23;20513;-81
2022/10/01 13:08:27;;;;;;;11.80;5.37;;;11.20;1.00;;;;;;6111543;23;20250;-80
2022/10/01 13:11:04;;;;;;;12.23;5.53;;;11.20;1.00;;;;;;6108524;23;20506;-80
2022/10/01 13:13:37;;;;;;;13.83;6.00;;;11.20;1.00;;;;;;6106375;23;20396;-82
2022/10/01 13:16:10;;;;;;;11.23;5.20;;;11.20;1.00;;;;;;6106266;23;20432;-82
2022/10/01 13:18:58;;;;;;;11.57;4.87;;;11.30;1.00;;;;;;6103822;23;21051;-82
2022/10/01 13:21:32;;;;;;;11.20;5.13;;;11.30;1.00;;;;;;6106607;23;20425;-81
2022/10/01 13:24:06;;;;;;;11.47;5.30;;;11.30;1.00;;;;;;6110032;23;20500;-81
2022/10/01 13:26:41;;;;;;;12.30;6.20;;;11.30;1.00;;;;;;6109109;23;20468;-81
2022/10/01 13:29:32;;;;;;;11.30;5.90;;;11.30;1.00;;;;;;6108455;23;20427;-80
2022/10/01 13:32:03;;;;;;;10.87;4.57;;;11.40;1.00;;;;;;6108809;23;20401;-82
2022/10/01 13:34:37;;;;;;;11.80;5.80;;;11.40;1.00;;;;;;6089078;23;20393;-82
2022/10/01 13:37:13;;;;;;;11.60;5.80;;;11.40;1.00;;;;;;6088584;23;20413;-81
2022/10/01 13:39:42;;;;;;;10.90;5.67;;;11.40;1.00;;;;;;6113060;23;20389;-81
2022/10/01 13:42:30;;;;;;;11.10;5.10;;;11.50;1.00;;;;;;6117759;23;20389;-81
2022/10/01 13:45:08;;;;;;;12.00;6.20;;;11.50;1.00;;;;;;6114958;23;20373;-78
2022/10/01 13:47:40;;;;;;;11.20;5.20;;;11.50;1.00;;;;;;6111266;23;20464;-78
2022/10/01 13:50:20;;;;;;;10.57;5.00;;;11.50;1.00;;;;;;6085980;23;20400;-78